Time;durP1;ratioP1;P1;durP2;ratioP2;P2;SDS_P1;SDS_P2;PMS_P1;PMS_P2;Temp;Humidity;BMP_temperature;BMP_pressure;BME280_temperature;BME280_humidity;BME280_pressure;Samples;Min_cycle;Max_cycle;Signal;HPM_P1;HPM_P2
2023/09/18 00:00:52;;;;;;;33.28;22.83;;;;;;;18.65;100.00;-24135.84;6273490;22;20007;-77
2023/09/18 00:03:24;;;;;;;28.27;22.48;;;;;;;18.65;100.00;-24135.66;6274447;22;20007;-73
2023/09/18 00:05:50;;;;;;;28.42;22.55;;;;;;;18.62;100.00;-24134.59;6247146;22;20425;-74
2023/09/18 00:08:17;;;;;;;37.33;22.77;;;;;;;18.60;100.00;-24133.88;6246531;22;20326;-74
2023/09/18 00:10:46;;;;;;;32.22;22.15;;;;;;;18.63;100.00;-24135.13;6274210;22;20386;-74
2023/09/18 00:13:11;;;;;;;35.33;23.15;;;;;;;18.64;100.00;-24135.31;6246941;22;20015;-75
2023/09/18 00:15:38;;;;;;;36.60;23.43;;;;;;;18.57;100.00;-24132.97;6246808;22;20011;-74
2023/09/18 00:18:04;;;;;;;29.33;21.98;;;;;;;18.55;100.00;-24132.09;6274009;22;20010;-75
2023/09/18 00:20:29;;;;;;;26.43;21.47;;;;;;;18.55;100.00;-24132.09;6273533;22;20090;-75
2023/09/18 00:22:55;;;;;;;29.80;22.77;;;;;;;18.57;100.00;-24132.81;6273911;22;20029;-75
2023/09/18 00:25:22;;;;;;;;;;;;;;;18.64;100.00;-24135.31;6274406;22;20035;-74
2023/09/18 00:27:47;;;;;;;26.05;20.70;;;;;;;18.61;100.00;-24134.41;6273911;22;20669;-75
2023/09/18 00:30:13;;;;;;;33.53;21.77;;;;;;;18.55;100.00;-24132.25;6273474;22;20031;-77
2023/09/18 00:32:38;;;;;;;28.73;21.87;;;;;;;18.54;100.00;-24131.91;6274515;22;20307;-74
2023/09/18 00:35:04;;;;;;;30.67;22.00;;;;;;;18.52;100.00;-24131.19;6246693;22;20007;-76
2023/09/18 00:37:29;;;;;;;36.90;22.37;;;;;;;18.49;100.00;-24129.94;6273176;22;20010;-74
2023/09/18 00:39:55;;;;;;;27.93;20.93;;;;;;;18.46;100.00;-24128.88;6246793;22;20019;-75
2023/09/18 00:42:22;;;;;;;28.17;21.83;;;;;;;18.47;100.00;-24129.22;6273646;22;20334;-75
2023/09/18 00:44:48;;;;;;;25.73;21.40;;;;;;;18.47;100.00;-24129.22;6273359;22;20004;-76
2023/09/18 00:47:15;;;;;;;31.73;21.55;;;;;;;18.44;100.00;-24128.16;6273319;22;20075;-74
2023/09/18 00:49:44;;;;;;;31.05;21.48;;;;;;;18.45;100.00;-24128.69;6274097;22;20015;-74
2023/09/18 00:52:10;;;;;;;28.80;22.58;;;;;;;18.46;100.00;-24129.06;6273607;22;20372;-75
2023/09/18 00:54:38;;;;;;;30.27;22.33;;;;;;;18.49;100.00;-24130.13;6273547;22;20041;-75
2023/09/18 00:57:05;;;;;;;34.88;20.85;;;;;;;18.48;100.00;-24129.59;6245986;22;20523;-75
2023/09/18 00:59:32;;;;;;;29.38;20.80;;;;;;;18.47;100.00;-24129.22;6273779;22;20429;-74
2023/09/18 01:01:57;;;;;;;;;;;;;;;18.50;100.00;-24130.47;6273500;22;20007;-74
2023/09/18 01:04:26;;;;;;;26.33;21.60;;;;;;;18.49;100.00;-24130.13;6246063;22;19907;-75
2023/09/18 01:06:56;;;;;;;27.90;20.15;;;;;;;18.52;100.00;-24131.19;6273339;22;20011;-74
2023/09/18 01:09:21;;;;;;;31.17;21.92;;;;;;;18.57;100.00;-24132.97;6273039;22;20334;-74
2023/09/18 01:11:53;;;;;;;26.50;21.87;;;;;;;18.61;100.00;-24134.22;6246351;22;19999;-74
2023/09/18 01:14:44;;;;;;;22.90;20.38;;;;;;;18.58;100.00;-24133.16;6245427;22;20004;-74
2023/09/18 01:17:12;;;;;;;27.83;20.92;;;;;;;18.57;100.00;-24132.81;6245674;22;20090;-75
2023/09/18 01:19:39;;;;;;;30.77;20.45;;;;;;;18.55;100.00;-24132.09;6273114;22;20000;-74
2023/09/18 01:29:50;;;;;;;30.27;20.58;;;;;;;18.57;100.00;-24132.81;6260181;22;20354;-74
2023/09/18 01:32:16;;;;;;;28.45;20.77;;;;;;;18.57;100.00;-24132.97;6303504;22;20003;-73
2023/09/18 01:34:48;;;;;;;25.57;19.17;;;;;;;18.54;100.00;-24131.72;6276542;22;20086;-74
2023/09/18 01:37:16;;;;;;;24.40;19.60;;;;;;;18.45;100.00;-24128.69;6303711;22;20444;-72
2023/09/18 01:39:42;;;;;;;26.58;18.75;;;;;;;18.39;100.00;-24126.56;6304420;22;20003;-73
2023/09/18 01:42:11;;;;;;;22.58;18.25;;;;;;;18.33;100.00;-24124.22;6276766;22;20098;-73
2023/09/18 01:44:38;;;;;;;30.10;18.67;;;;;;;18.27;100.00;-24122.09;6275560;22;20014;-74
2023/09/18 01:47:10;;;;;;;29.77;18.92;;;;;;;18.27;100.00;-24122.09;6303379;22;20007;-73
2023/09/18 01:49:38;;;;;;;29.23;19.77;;;;;;;18.32;100.00;-24124.06;6304154;22;20382;-73
2023/09/18 01:52:06;;;;;;;23.35;19.15;;;;;;;18.32;100.00;-24124.06;6275949;22;20389;-74
2023/09/18 01:54:33;;;;;;;27.33;19.48;;;;;;;18.29;100.00;-24122.97;6276066;22;20046;-74
2023/09/18 01:56:58;;;;;;;28.10;18.65;;;;;;;18.29;100.00;-24122.97;6303772;22;20010;-73
2023/09/18 01:59:24;;;;;;;26.20;18.53;;;;;;;18.26;100.00;-24121.72;6303512;22;20537;-72
2023/09/18 02:01:51;;;;;;;24.90;17.17;;;;;;;18.40;100.00;-24126.72;6276297;22;20011;-74
2023/09/18 02:04:17;;;;;;;27.83;17.33;;;;;;;18.48;100.00;-24129.59;6303751;22;20074;-74
2023/09/18 02:06:43;;;;;;;23.15;17.42;;;;;;;18.58;100.00;-24133.34;6303746;22;20074;-74
2023/09/18 02:09:08;;;;;;;27.25;17.98;;;;;;;18.62;100.00;-24134.75;6303828;22;20044;-74
2023/09/18 02:11:38;;;;;;;23.77;16.97;;;;;;;18.69;100.00;-24137.25;6275897;22;20003;-75
2023/09/18 02:14:05;;;;;;;22.42;16.55;;;;;;;18.68;100.00;-24136.72;6275949;22;20029;-75
2023/09/18 02:16:36;;;;;;;23.40;15.30;;;;;;;18.73;100.00;-24138.50;6303072;22;20007;-74
2023/09/18 02:19:04;;;;;;;24.30;16.80;;;;;;;18.76;100.00;-24139.59;6303621;22;20011;-74
2023/09/18 02:21:30;;;;;;;26.17;15.52;;;;;;;18.71;100.00;-24137.78;6276056;22;20057;-74
2023/09/18 02:23:56;;;;;;;27.08;15.45;;;;;;;18.73;100.00;-24138.50;6303906;22;20086;-74
2023/09/18 02:26:24;;;;;;;24.27;14.77;;;;;;;18.70;100.00;-24137.44;6303102;22;20430;-75
2023/09/18 02:28:51;;;;;;;26.08;14.27;;;;;;;18.67;100.00;-24136.38;6276654;22;20003;-74
2023/09/18 02:31:17;;;;;;;22.90;15.07;;;;;;;18.66;100.00;-24136.00;6304556;22;20321;-74
2023/09/18 02:33:43;;;;;;;21.77;14.90;;;;;;;18.61;100.00;-24134.22;6305242;22;20006;-75
2023/09/18 02:36:08;;;;;;;22.38;14.98;;;;;;;18.65;100.00;-24135.66;6305490;22;20494;-74
2023/09/18 02:38:34;;;;;;;22.17;14.57;;;;;;;18.60;100.00;-24133.88;6278769;22;20030;-74
2023/09/18 02:41:00;;;;;;;22.60;13.23;;;;;;;18.53;100.00;-24131.56;6305292;22;20018;-75
2023/09/18 02:43:25;;;;;;;29.08;15.05;;;;;;;18.53;100.00;-24131.38;6305304;22;20508;-74
2023/09/18 02:45:51;;;;;;;14.00;12.33;;;;;;;18.49;100.00;-24129.94;6304754;22;20007;-74
2023/09/18 02:48:17;;;;;;;15.87;12.00;;;;;;;18.46;100.00;-24128.88;6305632;22;20003;-74
2023/09/18 02:50:43;;;;;;;18.98;12.98;;;;;;;18.45;100.00;-24128.50;6278631;22;20018;-74
2023/09/18 02:53:23;;;;;;;18.33;14.13;;;;;;;18.42;100.00;-24127.44;6305274;22;20003;-75
2023/09/18 02:55:52;;;;;;;22.23;14.65;;;;;;;18.41;100.00;-24127.09;6277402;22;19999;-74
2023/09/18 02:58:19;;;;;;;22.33;13.38;;;;;;;18.38;100.00;-24126.19;6305159;22;20451;-73
2023/09/18 03:00:50;;;;;;;21.17;14.15;;;;;;;18.44;100.00;-24128.34;6277773;22;20429;-73
2023/09/18 03:03:16;;;;;;;20.35;14.70;;;;;;;18.48;100.00;-24129.78;6305644;22;20003;-74
2023/09/18 03:05:43;;;;;;;16.85;13.27;;;;;;;18.61;100.00;-24134.22;6252469;22;20429;-74
2023/09/18 03:08:09;;;;;;;22.08;12.85;;;;;;;18.72;100.00;-24138.34;6278079;22;20035;-75
2023/09/18 03:10:36;;;;;;;22.40;14.15;;;;;;;18.80;100.00;-24141.00;6252655;22;20086;-75
2023/09/18 03:13:04;;;;;;;19.45;12.90;;;;;;;18.98;100.00;-24147.63;6305446;22;20037;-73
2023/09/18 03:15:30;;;;;;;19.50;13.50;;;;;;;19.01;100.00;-24148.69;6304744;22;20021;-73
2023/09/18 03:17:57;;;;;;;22.10;14.20;;;;;;;19.10;100.00;-24151.72;6278133;22;20027;-74
2023/09/18 03:20:26;;;;;;;;;;;;;;;19.13;100.00;-24152.97;6278368;22;20007;-73
2023/09/18 03:22:55;;;;;;;25.95;13.57;;;;;;;19.19;100.00;-24155.13;6306077;22;19914;-74
2023/09/18 03:25:21;;;;;;;25.85;14.38;;;;;;;19.23;100.00;-24156.38;6305585;22;20060;-72
2023/09/18 03:27:47;;;;;;;21.08;13.13;;;;;;;19.15;100.00;-24153.69;6252374;22;20380;-73
2023/09/18 03:30:15;;;;;;;23.10;12.57;;;;;;;19.14;100.00;-24153.16;6304917;22;20441;-73
2023/09/18 03:32:41;;;;;;;27.60;12.55;;;;;;;19.07;100.00;-24150.84;6305450;22;20368;-72
2023/09/18 03:35:08;;;;;;;20.93;12.33;;;;;;;19.09;100.00;-24151.38;6304511;22;20010;-73
2023/09/18 03:37:34;;;;;;;19.33;12.10;;;;;;;19.04;100.00;-24149.59;6277516;22;19999;-73
2023/09/18 03:39:59;;;;;;;18.33;11.70;;;;;;;19.05;100.00;-24149.94;6304732;22;20049;-73
2023/09/18 03:42:26;;;;;;;21.13;11.87;;;;;;;19.05;100.00;-24149.94;6304513;22;20035;-73
2023/09/18 03:44:51;;;;;;;19.00;11.88;;;;;;;19.05;100.00;-24149.94;6277155;22;20031;-72
2023/09/18 03:47:16;;;;;;;19.80;10.60;;;;;;;19.13;100.00;-24152.97;6276660;22;20026;-72
2023/09/18 03:49:42;;;;;;;13.60;8.90;;;;;;;19.08;100.00;-24151.19;6305210;22;20010;-72
2023/09/18 03:52:07;;;;;;;11.70;8.97;;;;;;;19.16;100.00;-24153.88;6305181;22;19999;-73
2023/09/18 03:54:32;;;;;;;12.67;9.53;;;;;;;19.10;100.00;-24151.91;6304458;22;20071;-73
2023/09/18 03:56:58;;;;;;;16.57;8.73;;;;;;;19.09;100.00;-24151.53;6277888;22;20007;-73
2023/09/18 03:59:23;;;;;;;14.37;7.83;;;;;;;19.01;100.00;-24148.50;6304596;22;20031;-73
2023/09/18 04:01:49;;;;;;;20.57;9.10;;;;;;;19.01;100.00;-24148.50;6304573;22;20010;-72
2023/09/18 04:04:15;;;;;;;15.57;9.20;;;;;;;18.98;100.00;-24147.44;6276834;22;19999;-73
2023/09/18 04:06:42;;;;;;;15.30;8.43;;;;;;;18.97;100.00;-24147.09;6304137;22;20319;-72
2023/09/18 04:09:09;;;;;;;12.55;7.65;;;;;;;18.97;100.00;-24147.09;6304641;22;20010;-73
2023/09/18 04:11:34;;;;;;;22.48;7.82;;;;;;;18.91;100.00;-24145.13;6304473;22;20433;-73
2023/09/18 04:14:01;;;;;;;13.73;8.25;;;;;;;18.89;100.00;-24144.41;6303846;22;20006;-73
2023/09/18 04:16:27;;;;;;;;;;;;;;;18.86;100.00;-24143.16;6304595;22;20003;-73
2023/09/18 04:18:55;;;;;;;13.35;7.93;;;;;;;18.84;100.00;-24142.44;6304642;22;20320;-74
2023/09/18 04:21:21;;;;;;;17.52;8.07;;;;;;;18.78;100.00;-24140.47;6304466;22;20091;-74
2023/09/18 04:23:47;;;;;;;10.45;6.97;;;;;;;18.77;100.00;-24140.13;6304601;22;20007;-77
2023/09/18 04:26:15;;;;;;;19.33;8.00;;;;;;;18.77;100.00;-24139.94;6304107;22;20007;-76
2023/09/18 04:28:41;;;;;;;14.75;7.95;;;;;;;18.87;100.00;-24143.50;6276651;22;20399;-76
2023/09/18 04:31:07;;;;;;;18.65;7.80;;;;;;;18.92;100.00;-24145.28;6303774;22;20514;-76
2023/09/18 04:33:32;;;;;;;10.87;7.93;;;;;;;18.93;100.00;-24145.66;6304546;22;20019;-76
2023/09/18 04:35:58;;;;;;;13.73;7.43;;;;;;;18.89;100.00;-24144.41;6277675;22;19999;-76
2023/09/18 04:38:23;;;;;;;9.63;7.70;;;;;;;18.91;100.00;-24144.94;6304333;22;20081;-77
2023/09/18 04:40:57;;;;;;;10.60;7.50;;;;;;;18.92;100.00;-24145.28;6304117;22;19999;-76
2023/09/18 04:43:23;;;;;;;12.80;7.93;;;;;;;18.92;100.00;-24145.28;6276571;22;20006;-76
2023/09/18 04:45:49;;;;;;;17.80;7.30;;;;;;;18.92;100.00;-24145.47;6304009;22;20010;-76
2023/09/18 04:48:14;;;;;;;11.30;7.70;;;;;;;19.00;100.00;-24148.16;6304494;22;19999;-75
2023/09/18 04:50:40;;;;;;;15.00;8.30;;;;;;;19.02;100.00;-24148.88;6304338;22;20007;-76
2023/09/18 04:53:05;;;;;;;14.37;8.17;;;;;;;19.05;100.00;-24150.13;6276599;22;20061;-75
2023/09/18 04:55:31;;;;;;;12.60;8.23;;;;;;;19.03;100.00;-24149.41;6303979;22;19995;-76
2023/09/18 04:57:58;;;;;;;15.57;7.87;;;;;;;19.01;100.00;-24148.50;6276654;22;20007;-76
2023/09/18 05:00:26;;;;;;;16.25;9.07;;;;;;;18.99;100.00;-24147.81;6303257;22;20003;-76
2023/09/18 05:02:51;;;;;;;25.20;8.90;;;;;;;19.01;100.00;-24148.50;6275817;22;20349;-76
2023/09/18 05:05:17;;;;;;;13.43;8.40;;;;;;;18.97;100.00;-24147.25;6303904;22;20003;-76
2023/09/18 05:07:43;;;;;;;15.38;7.70;;;;;;;18.97;100.00;-24147.09;6276938;22;20007;-75
2023/09/18 05:10:09;;;;;;;8.23;6.77;;;;;;;18.94;100.00;-24146.19;6275960;22;20315;-76
2023/09/18 05:12:35;;;;;;;11.18;7.28;;;;;;;18.98;100.00;-24147.63;6303764;22;19999;-76
2023/09/18 05:15:00;;;;;;;10.10;6.63;;;;;;;18.93;100.00;-24145.66;6276161;22;20388;-76
2023/09/18 05:17:52;;;;;;;12.03;6.13;;;;;;;18.93;100.00;-24145.66;6276457;22;20010;-76
2023/09/18 05:20:18;;;;;;;8.07;5.93;;;;;;;18.89;100.00;-24144.22;6264064;22;20039;-76
2023/09/18 05:22:44;;;;;;;15.70;5.85;;;;;;;18.89;100.00;-24144.22;6305064;22;20052;-76
2023/09/18 05:25:10;;;;;;;7.43;5.60;;;;;;;18.90;100.00;-24144.59;6276146;22;20007;-77
2023/09/18 05:27:44;;;;;;;7.18;4.70;;;;;;;18.91;100.00;-24144.94;6275778;22;20476;-77
2023/09/18 05:30:12;;;;;;;11.73;5.97;;;;;;;18.90;100.00;-24144.59;6274816;22;20023;-75
2023/09/18 05:32:37;;;;;;;9.35;5.40;;;;;;;18.94;100.00;-24146.00;6276828;22;20456;-74
2023/09/18 05:35:06;;;;;;;13.17;5.93;;;;;;;18.93;100.00;-23799.38;6301984;22;19999;-74
2023/09/18 05:37:32;;;;;;;11.05;5.95;;;;;;;18.97;100.00;-23456.47;6301648;22;20007;-74
2023/09/18 05:39:58;;;;;;;11.63;5.65;;;;;;;18.95;100.00;-22422.69;6274330;22;20348;-74
2023/09/18 05:42:24;;;;;;;9.70;6.43;;;;;;;19.02;100.00;-21736.03;6300654;22;20003;-74
2023/09/18 05:44:49;;;;;;;7.10;6.03;;;;;;;18.98;100.00;-20701.16;6302438;22;20341;-74
2023/09/18 05:47:15;;;;;;;12.97;6.67;;;;;;;18.96;100.00;-20700.72;6302699;22;20010;-74
2023/09/18 05:49:40;;;;;;;13.80;7.00;;;;;;;18.98;100.00;-20701.31;6302374;22;20018;-75
2023/09/18 05:52:06;;;;;;;13.47;7.67;;;;;;;19.00;100.00;-20701.78;6302820;22;20017;-75
2023/09/18 05:54:31;;;;;;;9.03;7.57;;;;;;;18.97;100.00;-21045.56;6275063;22;20003;-75
2023/09/18 05:56:57;;;;;;;10.63;7.53;;;;;;;18.98;100.00;-21390.25;6275215;22;20085;-76
2023/09/18 05:59:22;;;;;;;11.03;7.63;;;;;;;18.98;100.00;-21734.75;6275409;22;20345;-75
2023/09/18 06:01:49;;;;;;;10.13;8.10;;;;;;;18.96;100.00;-21734.28;6301413;22;20015;-74
2023/09/18 06:04:14;;;;;;;12.52;8.32;;;;;;;18.97;100.00;-22079.09;6274141;22;20003;-75
2023/09/18 06:06:40;;;;;;;15.23;8.43;;;;;;;18.90;100.00;-22076.81;6303309;22;20009;-76
2023/09/18 06:09:05;;;;;;;13.20;8.60;;;;;;;18.92;100.00;-22766.25;6301764;22;20003;-75
2023/09/18 06:16:34;;;;;;;13.38;9.13;;;;;;;18.84;100.00;-23796.22;6179902;23;20033;-75
2023/09/18 06:19:00;;;;;;;24.60;9.40;;;;;;;18.82;100.00;-23795.69;6181577;23;20420;-75
2023/09/18 06:21:25;;;;;;;12.40;8.98;;;;;;;18.75;100.00;-23448.88;6181718;23;20100;-75
2023/09/18 06:23:51;;;;;;;13.20;8.50;;;;;;;18.71;100.00;-23791.81;6181884;23;20059;-75
2023/09/18 06:26:17;;;;;;;30.57;9.07;;;;;;;18.67;100.00;-23790.41;6154468;23;20008;-75
2023/09/18 06:28:43;;;;;;;13.95;8.52;;;;;;;18.72;100.00;-23792.16;6153985;23;20700;-75
2023/09/18 06:31:08;;;;;;;14.70;8.90;;;;;;;18.71;100.00;-23791.81;6180652;23;20009;-76
2023/09/18 06:33:34;;;;;;;18.40;8.70;;;;;;;18.72;100.00;-23448.00;6154161;23;20016;-75
2023/09/18 06:36:00;;;;;;;14.27;8.77;;;;;;;18.75;100.00;-23448.88;6178854;23;20081;-75
2023/09/18 06:38:26;;;;;;;14.18;8.40;;;;;;;18.70;100.00;-23447.13;6176679;23;20025;-75
2023/09/18 06:40:52;;;;;;;20.10;7.97;;;;;;;18.71;100.00;-23791.81;6150347;23;20339;-76
2023/09/18 06:43:18;;;;;;;10.00;7.32;;;;;;;18.69;100.00;-22758.38;6173815;23;20352;-75
2023/09/18 06:45:43;;;;;;;15.20;7.63;;;;;;;18.68;100.00;-23102.25;6169735;23;20001;-75
2023/09/18 06:48:09;;;;;;;14.33;7.17;;;;;;;18.70;100.00;-22414.47;6174626;23;20019;-75
2023/09/18 06:50:36;;;;;;;17.13;7.10;;;;;;;18.71;100.00;-22070.66;6176052;23;20005;-76
2023/09/18 06:53:01;;;;;;;10.18;7.03;;;;;;;18.75;100.00;-20694.22;6178673;23;20050;-75
2023/09/18 06:55:27;;;;;;;25.10;15.13;;;;;;;18.74;100.00;-20004.97;6152124;23;20375;-75
2023/09/18 06:57:53;;;;;;;7.73;6.93;;;;;;;18.77;100.00;-19316.72;6178285;23;20016;-75
2023/09/18 07:00:20;;;;;;;10.70;6.88;;;;;;;18.75;100.00;-18282.28;6178805;23;20072;-75
2023/09/18 07:02:46;;;;;;;9.77;6.50;;;;;;;18.78;100.00;-17938.38;6179079;23;20001;-75
2023/09/18 07:05:12;;;;;;;9.38;7.15;;;;;;;18.82;100.00;-16905.03;6152123;23;20467;-75
2023/09/18 07:07:37;;;;;;;17.90;7.40;;;;;;;18.83;100.00;-16560.41;6177444;23;20012;-75
2023/09/18 07:12:39;;;;;;;24.10;8.80;;;;;;;18.83;100.00;-15180.78;6259521;22;20024;-75
2023/09/18 07:17:39;;;;;;;13.27;8.20;;;;;;;18.89;100.00;-14837.00;6234061;22;20402;-75
2023/09/18 07:30:52;;;;;;;11.05;7.57;;;;;;;18.91;100.00;-11385.03;6233639;22;20027;-75
2023/09/18 08:01:54;;;;;;;10.70;7.45;;;;;;;18.89;100.00;-6892.25;6261711;22;20034;-73
2023/09/18 08:04:20;;;;;;;12.48;7.15;;;;;;;18.95;100.00;-6892.75;6271040;22;20441;-74
2023/09/18 08:27:29;;;;;;;11.00;6.40;;;;;;;19.48;100.00;2112.41;6239836;22;20011;-76
2023/09/18 08:29:54;;;;;;;8.55;6.03;;;;;;;19.66;100.00;4890.75;6240788;23;20036;-72
2023/09/18 08:32:19;;;;;;;13.73;6.30;;;;;;;19.96;100.00;7326.91;6238691;23;20583;-75
2023/09/18 08:34:45;;;;;;;17.27;6.60;;;;;;;19.97;100.00;13241.94;6214605;23;20004;-75
2023/09/18 08:47:31;;;;;;;17.30;4.57;;;;;;;19.59;100.00;24383.94;6238635;22;20012;-75
2023/09/18 08:49:57;;;;;;;5.70;4.37;;;;;;;19.57;100.00;25429.91;6270087;22;20350;-75
2023/09/18 08:52:23;;;;;;;7.00;4.57;;;;;;;19.78;100.00;25439.47;6243367;22;20008;-76
2023/09/18 08:54:50;;;;;;;8.13;4.40;;;;;;;20.07;100.00;34545.66;6244504;22;20003;-75
2023/09/18 09:23:26;;;;;;;7.35;5.40;;;;;;;19.52;100.00;35562.72;6260111;22;20172;-74
2023/09/18 09:43:58;;;;;;;9.40;5.60;;;;;;;19.44;100.00;33808.78;6256747;22;20457;-72
2023/09/18 09:46:27;;;;;;;7.87;5.60;;;;;;;19.42;100.00;33457.94;6243341;22;20026;-74
2023/09/18 09:49:03;;;;;;;7.28;5.40;;;;;;;19.36;100.00;32405.63;6242321;22;20026;-72
2023/09/18 09:51:29;;;;;;;9.17;5.33;;;;;;;19.32;100.00;32753.25;6269926;22;20000;-73
2023/09/18 09:53:58;;;;;;;8.95;5.85;;;;;;;19.37;100.00;31008.16;6242398;22;20012;-74
2023/09/18 09:56:50;;;;;;;8.57;5.80;;;;;;;19.52;100.00;29269.19;6268560;22;20002;-76
2023/09/18 09:59:19;;;;;;;19.38;6.40;;;;;;;19.69;100.00;31375.22;6259232;22;20019;-74
2023/09/18 10:17:19;;;;;;;10.55;5.82;;;;;;;20.47;100.00;88544.53;6224507;22;20028;-74
2023/09/18 10:30:11;;;;;;;9.80;5.45;;;;;;;20.53;100.00;90685.97;6220127;22;20032;-74
2023/09/18 10:32:40;;;;;;;12.60;5.25;;;;;;;20.66;100.00;90705.63;6243227;22;20011;-73
2023/09/18 10:35:12;;;;;;;9.77;5.03;;;;;;;21.32;100.00;97571.81;6269311;22;20057;-74
2023/09/18 10:37:38;;;;;;;7.65;4.40;;;;;;;21.48;100.00;117973.22;6244636;22;20003;-73
2023/09/18 10:40:08;;;;;;;;;;;;;;;21.43;100.00;149142.69;6219188;22;20072;-73
2023/09/18 10:42:36;;;;;;;7.32;4.57;;;;;;;21.17;100.00;154247.97;6241370;22;19918;-75
2023/09/18 10:52:47;;;;;;;15.43;4.25;;;;;;;20.72;100.00;156656.19;6235422;22;20038;-71
2023/09/18 11:03:11;;;;;;;5.32;4.00;;;;;;;21.16;100.00;135136.75;6232979;22;20012;-74
2023/09/18 11:05:37;;;;;;;5.20;4.25;;;;;;;21.21;100.00;146313.34;6210399;23;20092;-74
2023/09/18 11:08:30;;;;;;;10.07;4.83;;;;;;;21.18;100.00;156775.00;6242711;22;20405;-75
2023/09/18 11:11:04;;;;;;;7.82;3.90;;;;;;;21.35;100.00;156778.28;6306757;22;20015;-77
2023/09/18 11:13:35;;;;;;;13.40;4.00;;;;;;;21.58;100.00;155542.69;6304328;22;20081;-73
2023/09/18 11:16:22;;;;;;;9.10;3.63;;;;;;;21.45;100.00;156846.78;6304656;22;20036;-74
2023/09/18 11:37:21;;;;;;;15.85;4.25;;;;;;;22.33;100.00;157075.38;6242390;22;20080;-75
2023/09/18 11:39:47;;;;;;;9.18;3.95;;;;;;;22.05;100.00;157003.56;6244118;22;20015;-72
2023/09/18 11:42:17;;;;;;;10.65;4.35;;;;;;;21.95;100.00;156977.44;6245415;22;20010;-74
2023/09/18 12:31:31;;;;;;;11.48;3.75;;;;;;;22.40;100.00;157094.97;6243741;22;20089;-74
2023/09/18 12:54:39;;;;;;;8.13;2.90;;;;;;;23.44;100.00;157365.63;6204517;22;20012;-77
2023/09/18 14:02:35;;;;;;;6.65;2.67;;;;;;;22.43;100.00;157101.50;6233698;22;20090;31
2023/09/18 14:23:07;;;;;;;11.07;4.00;;;;;;;20.51;100.00;123868.34;6253919;22;20023;-75
2023/09/18 14:25:33;;;;;;;12.10;2.90;;;;;;;19.39;100.00;10098.00;6277067;22;20021;-74
2023/09/18 14:27:59;;;;;;;17.60;3.47;;;;;;;18.89;100.00;25051.06;6304730;22;20025;-74
2023/09/18 14:30:29;;;;;;;;;;;;;;;18.61;100.00;26432.94;6304823;22;20283;-74
2023/09/18 14:32:55;;;;;;;12.57;2.50;;;;;;;18.24;100.00;24674.50;6304075;22;19986;-74
2023/09/18 14:35:20;;;;;;;5.50;2.27;;;;;;;18.11;100.00;21884.53;6276716;22;20444;-73
2023/09/18 14:37:47;;;;;;;4.67;1.23;;;;;;;17.88;100.00;26399.31;6304806;22;19999;-74
2023/09/18 14:40:14;;;;;;;7.00;1.60;;;;;;;17.64;100.00;24300.69;6276959;22;20377;-75
2023/09/18 14:42:40;;;;;;;3.40;1.48;;;;;;;17.53;100.00;23600.25;6304856;22;20074;-73
2023/09/18 14:45:06;;;;;;;5.07;1.60;;;;;;;17.34;100.00;20117.50;6276963;22;20400;-74
2023/09/18 14:47:31;;;;;;;3.88;1.17;;;;;;;17.36;100.00;16646.53;6277280;22;20727;-74
2023/09/18 14:49:58;;;;;;;7.87;2.27;;;;;;;17.24;100.00;14214.75;6303809;22;20007;-74
2023/09/18 15:00:12;;;;;;;4.72;2.65;;;;;;;17.29;100.00;3826.78;6232975;22;20350;-75
2023/09/18 15:02:38;;;;;;;4.00;2.03;;;;;;;17.34;100.00;5557.00;6241728;23;20008;-74
2023/09/18 15:05:08;;;;;;;9.60;2.57;;;;;;;17.39;100.00;5903.69;6241423;23;20003;-74
2023/09/18 15:07:34;;;;;;;7.30;2.92;;;;;;;17.38;100.00;5903.63;6241696;23;20307;-74
2023/09/18 15:09:59;;;;;;;12.03;3.03;;;;;;;17.38;100.00;5557.53;6242188;23;20007;-73
2023/09/18 15:12:25;;;;;;;7.97;2.83;;;;;;;17.53;100.00;5905.47;6211028;23;20065;-74
2023/09/18 15:14:50;;;;;;;7.80;2.97;;;;;;;17.75;100.00;7293.66;6239889;23;20070;-73
2023/09/18 15:17:16;;;;;;;9.47;3.20;;;;;;;18.05;100.00;9031.47;6241336;23;20072;-73
2023/09/18 15:19:42;;;;;;;8.50;2.67;;;;;;;18.41;100.00;12161.59;6211995;23;20430;-74
2023/09/18 15:22:08;;;;;;;6.38;3.08;;;;;;;18.64;100.00;18076.47;6215114;23;20012;-75
2023/09/18 15:24:33;;;;;;;7.53;2.93;;;;;;;18.71;100.00;25740.28;6241005;23;20498;-75
2023/09/18 15:26:58;;;;;;;13.80;2.97;;;;;;;18.83;100.00;27838.28;6213153;23;20459;-72
2023/09/18 15:29:24;;;;;;;4.43;2.47;;;;;;;18.83;100.00;30630.41;6240563;23;20378;-74
2023/09/18 15:31:50;;;;;;;6.97;2.13;;;;;;;18.88;100.00;28887.75;6213480;23;20007;-72
2023/09/18 15:34:16;;;;;;;5.33;2.30;;;;;;;18.93;100.00;29239.03;6242075;23;20046;-73
2023/09/18 15:36:42;;;;;;;;;;;;;;;18.89;100.00;30982.72;6214872;23;20008;-72
2023/09/18 15:39:08;;;;;;;7.40;2.67;;;;;;;18.87;100.00;33775.97;6215130;23;19943;-74
2023/09/18 15:41:37;;;;;;;6.00;2.72;;;;;;;18.87;100.00;33076.91;6216360;23;20031;-73
2023/09/18 15:44:02;;;;;;;5.30;2.28;;;;;;;18.83;100.00;31328.69;6243435;23;20346;-74
2023/09/18 15:46:29;;;;;;;5.93;3.03;;;;;;;18.84;100.00;27141.34;6241540;23;20015;-74
2023/09/18 15:48:56;;;;;;;;;;;;;;;18.84;100.00;27141.34;6215646;23;20014;-74
2023/09/18 15:51:21;;;;;;;4.77;3.13;;;;;;;18.87;100.00;27491.34;6239857;23;19911;-72
2023/09/18 15:53:47;;;;;;;7.67;3.40;;;;;;;18.94;100.00;29937.69;6212671;23;20430;-73
2023/09/18 15:56:13;;;;;;;7.87;2.80;;;;;;;18.98;100.00;32384.69;6210778;23;20087;-73
2023/09/18 15:58:38;;;;;;;8.13;2.40;;;;;;;19.01;100.00;34832.41;6217606;22;20555;-73
2023/09/18 16:01:04;;;;;;;3.17;2.63;;;;;;;19.06;100.00;33786.72;6271234;22;20393;-74
2023/09/18 16:03:30;;;;;;;9.65;2.90;;;;;;;19.06;100.00;43936.19;6272229;22;20014;-73
2023/09/18 16:05:55;;;;;;;7.83;3.03;;;;;;;19.13;100.00;46746.13;6271913;22;20414;-72
2023/09/18 16:08:21;;;;;;;7.93;2.90;;;;;;;19.14;100.00;47097.66;6272099;22;20241;-72
2023/09/18 16:10:46;;;;;;;4.73;2.53;;;;;;;19.08;100.00;42535.84;6272111;22;20741;-72
2023/09/18 16:13:13;;;;;;;5.87;2.70;;;;;;;19.18;100.00;42893.44;6245228;22;20007;-72
2023/09/18 16:15:38;;;;;;;7.38;2.97;;;;;;;19.17;100.00;41841.69;6243860;22;20066;-73
2023/09/18 16:18:04;;;;;;;4.30;2.70;;;;;;;19.25;100.00;38695.56;6245492;22;20075;-72
2023/09/18 16:30:50;;;;;;;7.68;2.72;;;;;;;19.21;100.00;57992.25;6264109;22;20499;-72
2023/09/18 16:46:11;;;;;;;9.20;2.17;;;;;;;19.23;100.00;129328.91;6219378;22;21364;-75
2023/09/18 17:04:10;;;;;;;6.32;2.28;;;;;;;19.09;100.00;156230.97;6203958;22;20019;-72
2023/09/18 18:36:03;;;;;;;15.45;3.25;;;;;;;18.21;100.00;156000.31;6217501;22;20060;-75
2023/09/18 18:48:49;;;;;;;25.02;5.22;;;;;;;18.00;100.00;155946.94;6287629;22;20030;-74
2023/09/18 18:51:20;;;;;;;12.13;2.83;;;;;;;18.01;100.00;155949.53;6300653;22;20432;-75
2023/09/18 18:53:48;;;;;;;10.40;2.92;;;;;;;17.96;100.00;155935.19;6274633;22;20053;-74
2023/09/18 18:56:14;;;;;;;15.40;2.97;;;;;;;17.94;100.00;155930.00;6276656;22;20003;-74
2023/09/18 18:58:41;;;;;;;18.17;4.43;;;;;;;17.96;100.00;155935.19;6276892;22;20003;-73
2023/09/18 19:01:07;;;;;;;12.35;2.90;;;;;;;17.91;100.00;155922.16;6274631;22;20003;-74
2023/09/18 19:03:37;;;;;;;21.93;4.23;;;;;;;17.92;100.00;155924.81;6303035;22;20029;-74
2023/09/18 19:06:07;;;;;;;13.63;3.17;;;;;;;17.90;100.00;155919.56;6275276;22;20018;-72
2023/09/18 19:08:34;;;;;;;16.92;3.08;;;;;;;17.85;100.00;155907.88;6275353;22;20007;-74
2023/09/18 19:11:00;;;;;;;12.13;3.20;;;;;;;17.82;100.00;155898.75;6300687;22;20007;-74
2023/09/18 19:13:26;;;;;;;;;;;;;;;17.74;100.00;155877.91;6303381;22;19999;-74
2023/09/18 19:31:24;;;;;;;17.38;4.13;;;;;;;17.33;100.00;151949.00;6208726;22;20397;-74
2023/09/18 19:51:55;;;;;;;23.52;4.40;;;;;;;17.00;100.00;125283.97;6221275;22;20023;-76
2023/09/18 19:54:23;;;;;;;17.63;4.13;;;;;;;17.05;100.00;122443.00;6256082;22;20389;-73
2023/09/18 19:56:50;;;;;;;22.58;4.55;;;;;;;17.19;100.00;128176.78;6305073;22;19995;-75